Time;durP1;ratioP1;P1;durP2;ratioP2;P2;SDS_P1;SDS_P2;PMS_P1;PMS_P2;Temp;Humidity;BMP_temperature;BMP_pressure;BME280_temperature;BME280_humidity;BME280_pressure;Samples;Min_cycle;Max_cycle;Signal;HPM_P1;HPM_P2
2023/05/09 00:01:40;;;;;;;17.13;12.43;;;;;;;14.68;100.00;100768.16;5042327;28;20674;-73
2023/05/09 00:04:06;;;;;;;14.30;10.87;;;;;;;14.66;100.00;100767.25;5039368;28;20195;-74
2023/05/09 00:06:33;;;;;;;13.10;10.57;;;;;;;14.67;100.00;100766.38;5039974;28;20717;-74
2023/05/09 00:08:59;;;;;;;15.67;11.33;;;;;;;14.70;100.00;100761.94;5048295;28;20214;-75
2023/05/09 00:11:26;;;;;;;15.97;11.60;;;;;;;14.77;100.00;100765.50;5047928;28;20683;-74
2023/05/09 00:13:52;;;;;;;17.13;12.13;;;;;;;14.68;100.00;100758.38;5047653;28;20451;-73
2023/05/09 00:16:19;;;;;;;15.37;11.30;;;;;;;14.63;100.00;100748.59;5029250;28;20221;-74
2023/05/09 00:18:46;;;;;;;16.43;12.13;;;;;;;14.62;100.00;100757.47;5040660;28;20191;-75
2023/05/09 00:21:12;;;;;;;15.83;11.60;;;;;;;14.63;100.00;100748.59;5045253;28;20675;-74
2023/05/09 00:23:38;;;;;;;18.40;12.53;;;;;;;14.65;100.00;100755.72;5041073;28;20245;-74
2023/05/09 00:26:04;;;;;;;15.93;12.30;;;;;;;14.69;100.00;100745.94;5044147;28;20620;-73
2023/05/09 00:28:31;;;;;;;16.67;12.63;;;;;;;14.68;100.00;100750.38;5043770;28;20199;-74
2023/05/09 00:30:57;;;;;;;17.40;12.63;;;;;;;14.72;100.00;100744.16;5046070;28;20205;-74
2023/05/09 00:33:27;;;;;;;17.43;12.27;;;;;;;14.70;100.00;100742.38;5041021;28;20203;-75
2023/05/09 00:35:53;;;;;;;22.93;14.33;;;;;;;14.74;100.00;100744.16;5042901;28;20249;-75
2023/05/09 00:38:21;;;;;;;20.00;14.80;;;;;;;14.77;100.00;100736.19;5044059;28;20223;-74
2023/05/09 00:40:48;;;;;;;18.77;13.63;;;;;;;14.82;100.00;100726.44;5042068;28;20274;-75
2023/05/09 00:43:15;;;;;;;16.93;12.60;;;;;;;14.73;100.00;100729.06;5040197;28;20591;-74
2023/05/09 00:45:43;;;;;;;17.50;13.07;;;;;;;14.82;100.00;100734.44;5042000;28;20195;-75
2023/05/09 00:48:10;;;;;;;18.07;13.63;;;;;;;14.85;100.00;100737.09;5040428;28;20216;-75
2023/05/09 00:50:39;;;;;;;18.20;12.83;;;;;;;14.79;100.00;100734.41;5043387;28;20215;-73
2023/05/09 00:53:06;;;;;;;15.67;11.90;;;;;;;14.77;100.00;100733.50;5039843;28;20257;-74
2023/05/09 00:55:32;;;;;;;14.70;11.47;;;;;;;14.68;100.00;100734.38;5044318;28;20206;-74
2023/05/09 00:57:59;;;;;;;16.17;11.90;;;;;;;14.65;100.00;100730.81;5047609;28;20609;-75
2023/05/09 01:00:25;;;;;;;18.13;12.40;;;;;;;14.75;100.00;100724.63;5045673;28;20214;-75
2023/05/09 01:02:55;;;;;;;17.43;12.67;;;;;;;14.79;100.00;100730.84;5038610;28;20229;-75
2023/05/09 01:05:28;;;;;;;20.33;12.97;;;;;;;14.71;100.00;100721.06;5046678;28;20211;-75
2023/05/09 01:08:06;;;;;;;21.20;13.60;;;;;;;14.69;100.00;100720.16;5044905;28;20216;-75
2023/05/09 01:11:08;;;;;;;17.83;12.83;;;;;;;14.56;100.00;100707.72;5044601;28;20241;-76
2023/05/09 01:13:48;;;;;;;16.63;12.27;;;;;;;14.40;100.00;100706.72;5037416;28;20194;-75
2023/05/09 01:16:37;;;;;;;19.60;12.73;;;;;;;14.28;100.00;100701.38;5043165;28;20222;-73
2023/05/09 01:19:26;;;;;;;21.67;13.70;;;;;;;14.12;100.00;100699.56;5044912;28;20199;-75
2023/05/09 01:21:55;;;;;;;17.00;11.90;;;;;;;13.96;100.00;100693.25;5041471;28;20202;-75
2023/05/09 01:24:33;;;;;;;17.47;12.97;;;;;;;13.79;100.00;100695.84;5046478;28;20255;-75
2023/05/09 01:27:31;;;;;;;19.83;13.43;;;;;;;13.68;100.00;100694.00;5047454;28;20238;-75
2023/05/09 01:30:01;;;;;;;18.43;13.67;;;;;;;13.63;100.00;100696.66;5046364;28;20206;-74
2023/05/09 01:32:30;;;;;;;20.00;13.10;;;;;;;13.60;100.00;100693.94;5035006;28;20195;-74
2023/05/09 01:35:01;;;;;;;19.10;13.37;;;;;;;13.51;100.00;100685.91;5046815;28;20190;-73
2023/05/09 01:37:33;;;;;;;17.97;13.20;;;;;;;13.48;100.00;100693.88;5027312;28;20608;-74
2023/05/09 01:40:06;;;;;;;16.67;12.67;;;;;;;13.41;100.00;100686.75;5039692;28;20194;-75
2023/05/09 01:42:41;;;;;;;15.47;11.60;;;;;;;13.27;100.00;100681.34;5046405;28;20260;-74
2023/05/09 01:45:09;;;;;;;16.60;12.40;;;;;;;13.20;100.00;100686.56;5038988;28;20689;-75
2023/05/09 01:47:38;;;;;;;18.10;11.90;;;;;;;13.17;100.00;100691.00;5046911;28;20223;-74
2023/05/09 01:50:08;;;;;;;19.67;13.30;;;;;;;13.18;100.00;100682.13;5045708;28;20218;-74
2023/05/09 01:52:36;;;;;;;19.00;12.80;;;;;;;13.21;100.00;100681.31;5040303;28;20203;-73
2023/05/09 01:55:04;;;;;;;18.00;13.67;;;;;;;13.20;100.00;100675.94;5045779;28;20191;-74
2023/05/09 01:57:33;;;;;;;19.97;14.63;;;;;;;13.17;100.00;100687.44;5040000;28;20277;-75
2023/05/09 02:00:01;;;;;;;20.30;13.87;;;;;;;13.22;100.00;100685.75;5045664;28;20274;-74
2023/05/09 02:02:28;;;;;;;20.40;14.33;;;;;;;13.19;100.00;100683.03;5040073;28;20616;-74
2023/05/09 02:04:55;;;;;;;17.80;13.33;;;;;;;13.13;100.00;100685.59;5042175;28;20242;-74
2023/05/09 02:07:23;;;;;;;19.23;13.23;;;;;;;13.07;100.00;100683.78;5044971;28;20363;-73
2023/05/09 02:09:53;;;;;;;18.07;13.33;;;;;;;13.08;100.00;100682.03;5043586;28;20221;-74
2023/05/09 02:12:20;;;;;;;16.03;12.77;;;;;;;13.12;100.00;100675.84;5044901;28;20687;-75
2023/05/09 02:14:47;;;;;;;18.30;13.13;;;;;;;13.17;100.00;100682.13;5043671;28;20447;-73
2023/05/09 02:17:15;;;;;;;18.10;13.17;;;;;;;13.23;100.00;100681.31;5042469;28;20596;-73
2023/05/09 02:19:42;;;;;;;23.20;14.47;;;;;;;13.24;100.00;100676.00;5037937;28;20191;-73
2023/05/09 02:22:11;;;;;;;23.40;14.73;;;;;;;13.26;100.00;100681.34;5031376;28;20195;-75
2023/05/09 02:24:37;;;;;;;21.43;14.80;;;;;;;13.17;100.00;100674.16;5039101;28;21662;-74
2023/05/09 02:27:06;;;;;;;24.70;14.93;;;;;;;13.07;100.00;100686.47;5029212;28;20215;-75
2023/05/09 02:29:41;;;;;;;20.07;13.97;;;;;;;13.03;100.00;100682.00;5040891;28;20306;-75
2023/05/09 02:32:15;;;;;;;19.90;13.83;;;;;;;12.96;100.00;100671.31;5050773;28;20202;-74
2023/05/09 02:34:44;;;;;;;18.33;13.03;;;;;;;12.89;100.00;100670.38;5042668;28;20191;-74
2023/05/09 02:37:12;;;;;;;17.53;13.07;;;;;;;12.87;100.00;100669.47;5048249;28;20265;-74
2023/05/09 02:39:38;;;;;;;23.23;13.50;;;;;;;12.93;100.00;100668.63;5045326;28;20555;-75
2023/05/09 02:42:09;;;;;;;19.60;13.90;;;;;;;13.01;100.00;100666.91;5043335;28;20259;-75
2023/05/09 02:44:37;;;;;;;19.40;13.60;;;;;;;13.08;100.00;100661.66;5043969;28;20199;-75
2023/05/09 02:47:05;;;;;;;23.70;14.37;;;;;;;13.08;100.00;100659.00;5041670;28;20230;-74
2023/05/09 02:49:33;;;;;;;20.40;15.03;;;;;;;13.25;100.00;100658.28;5046841;28;20218;-73
2023/05/09 02:51:59;;;;;;;23.07;14.00;;;;;;;13.13;100.00;100651.94;5049102;28;20252;-74
2023/05/09 02:54:26;;;;;;;20.30;13.03;;;;;;;13.00;100.00;100654.50;5047248;28;20203;-74
2023/05/09 02:56:52;;;;;;;18.10;13.40;;;;;;;12.87;100.00;100658.84;5040332;28;20242;-76
2023/05/09 02:59:19;;;;;;;19.93;13.47;;;;;;;12.73;100.00;100653.38;5040973;28;20200;-75
2023/05/09 03:01:45;;;;;;;17.03;12.87;;;;;;;12.60;100.00;100654.16;5050113;28;20248;-75
2023/05/09 03:04:12;;;;;;;19.97;13.20;;;;;;;12.48;100.00;100659.34;5047241;28;20197;-76
2023/05/09 03:06:38;;;;;;;18.73;13.57;;;;;;;12.35;100.00;100646.81;5038502;28;20707;-77
2023/05/09 03:09:05;;;;;;;19.27;12.73;;;;;;;12.22;100.00;100637.81;5038547;28;20220;-76
2023/05/09 03:11:35;;;;;;;19.97;13.10;;;;;;;12.15;100.00;100641.31;5047306;28;20269;-79
2023/05/09 03:14:02;;;;;;;18.13;12.87;;;;;;;12.09;100.00;100641.25;5025420;28;20202;-79
2023/05/09 03:16:29;;;;;;;21.90;14.07;;;;;;;12.23;100.00;100640.50;5047898;28;20248;-80
2023/05/09 03:18:56;;;;;;;23.67;15.73;;;;;;;12.32;100.00;100649.44;5043031;28;20516;-79
2023/05/09 03:21:22;;;;;;;20.97;14.50;;;;;;;12.31;100.00;100651.19;5050016;28;20745;-83
2023/05/09 03:23:49;;;;;;;19.00;13.77;;;;;;;12.37;100.00;100647.72;5052195;28;20628;-83
2023/05/09 03:26:15;;;;;;;17.57;13.47;;;;;;;12.25;100.00;100643.16;5041689;28;20218;-81
2023/05/09 03:28:42;;;;;;;19.03;13.83;;;;;;;12.18;100.00;100642.22;5042204;28;20226;-81
2023/05/09 03:31:08;;;;;;;21.50;14.37;;;;;;;12.16;100.00;100643.06;5047703;28;20218;-83
2023/05/09 03:33:34;;;;;;;23.80;14.23;;;;;;;12.15;100.00;100646.59;5047841;28;20661;-82
2023/05/09 03:36:01;;;;;;;20.53;14.17;;;;;;;12.12;100.00;100643.91;5049688;28;20257;-83
2023/05/09 03:38:27;;;;;;;19.90;13.87;;;;;;;12.12;100.00;100641.28;5041812;28;20229;-82
2023/05/09 03:40:54;;;;;;;18.67;13.47;;;;;;;12.16;100.00;100633.34;5042200;28;20191;-81
2023/05/09 03:43:20;;;;;;;23.80;15.03;;;;;;;12.27;100.00;100628.16;5049679;28;20268;-81
2023/05/09 03:45:46;;;;;;;22.90;15.63;;;;;;;12.32;100.00;100622.88;5044516;28;20245;-81
2023/05/09 03:48:13;;;;;;;25.43;15.53;;;;;;;12.31;100.00;100621.97;5046414;28;20210;-82
2023/05/09 03:50:39;;;;;;;21.53;14.43;;;;;;;12.32;100.00;100620.22;5046716;28;20709;-83
2023/05/09 03:53:06;;;;;;;23.83;15.23;;;;;;;12.33;100.00;100622.00;5043922;28;20203;-83
2023/05/09 03:55:32;;;;;;;24.97;15.07;;;;;;;12.41;100.00;100618.56;5046815;28;20576;-83
2023/05/09 03:57:58;;;;;;;24.33;15.73;;;;;;;12.47;100.00;100612.41;5041165;28;20222;-83
2023/05/09 04:00:25;;;;;;;23.97;15.40;;;;;;;12.53;100.00;100613.38;5047114;28;20199;-83
2023/05/09 04:02:52;;;;;;;20.23;14.40;;;;;;;12.54;100.00;100617.78;5042219;28;20196;-83
2023/05/09 04:05:19;;;;;;;19.57;13.63;;;;;;;12.59;100.00;100617.84;5048258;28;20195;-83
2023/05/09 04:07:45;;;;;;;20.97;14.87;;;;;;;12.68;100.00;100623.22;5048006;28;20215;-81
2023/05/09 04:10:12;;;;;;;22.27;15.17;;;;;;;12.85;100.00;100618.06;5043091;28;20261;-83
2023/05/09 04:12:38;;;;;;;24.57;15.90;;;;;;;12.89;100.00;100626.94;5039990;28;20203;-81
2023/05/09 04:15:05;;;;;;;21.27;15.07;;;;;;;13.01;100.00;100619.06;5048144;28;20191;-83
2023/05/09 04:17:32;;;;;;;25.03;16.30;;;;;;;13.15;100.00;100626.22;5043359;28;20219;-83
2023/05/09 04:19:58;;;;;;;24.30;16.50;;;;;;;13.18;100.00;100617.41;5043949;28;20206;-83
2023/05/09 04:22:25;;;;;;;22.17;14.90;;;;;;;13.21;100.00;100620.13;5042178;28;20203;-83
2023/05/09 04:24:51;;;;;;;19.90;13.97;;;;;;;13.29;100.00;100623.72;5048982;28;20218;-82
2023/05/09 04:27:18;;;;;;;20.03;14.43;;;;;;;13.42;100.00;100616.69;5047161;28;20283;-78
2023/05/09 04:29:44;;;;;;;18.93;13.73;;;;;;;13.50;100.00;100622.94;5040550;28;20219;-78
2023/05/09 04:32:10;;;;;;;22.60;14.07;;;;;;;13.57;100.00;100622.06;5037731;28;20634;-78
2023/05/09 04:34:37;;;;;;;20.67;14.30;;;;;;;13.64;100.00;100626.56;5029281;28;20198;-76
2023/05/09 04:37:03;;;;;;;19.07;13.93;;;;;;;13.74;100.00;100625.72;5069295;23;20226;-69
2023/05/09 04:39:30;;;;;;;20.77;14.83;;;;;;;13.81;100.00;100623.97;5054660;28;20237;-67
2023/05/09 04:41:57;;;;;;;19.20;12.93;;;;;;;13.87;100.00;100624.00;5039636;28;20253;-69
2023/05/09 04:44:23;;;;;;;19.67;13.27;;;;;;;13.94;100.00;100611.59;5045436;28;20242;-69
2023/05/09 04:46:50;;;;;;;19.70;14.50;;;;;;;14.05;100.00;100601.88;5039067;28;20238;-69
2023/05/09 04:49:16;;;;;;;18.80;13.47;;;;;;;14.12;100.00;100611.66;5039026;28;20579;-68
2023/05/09 04:51:42;;;;;;;21.10;14.43;;;;;;;14.24;100.00;100606.34;5040516;28;20572;-70
2023/05/09 04:54:09;;;;;;;18.23;13.43;;;;;;;14.46;100.00;100590.44;5033235;28;20595;-68
2023/05/09 04:56:35;;;;;;;21.30;13.47;;;;;;;14.57;100.00;100594.88;5033446;28;20199;-68
2023/05/09 04:59:02;;;;;;;20.40;13.53;;;;;;;14.67;100.00;100591.31;5030221;28;20203;-69
2023/05/09 05:01:28;;;;;;;22.00;14.57;;;;;;;14.93;100.00;100590.44;5040705;28;20186;-69
2023/05/09 05:03:55;;;;;;;20.20;14.17;;;;;;;15.17;100.00;100574.38;5023172;28;20204;-68
2023/05/09 05:06:21;;;;;;;18.40;14.03;;;;;;;15.50;100.00;100588.50;5042330;28;20194;-68
2023/05/09 05:08:48;;;;;;;23.93;17.00;;;;;;;15.72;100.00;100586.69;5022742;28;20548;-68
2023/05/09 05:11:16;;;;;;;21.33;14.67;;;;;;;15.98;100.00;100576.75;5035522;28;20302;-68
2023/05/09 05:13:43;;;;;;;26.63;16.20;;;;;;;16.29;100.00;100578.34;5028402;28;20208;-68
2023/05/09 05:16:09;;;;;;;30.67;15.80;;;;;;;16.49;100.00;100580.00;5030784;28;20283;-66
2023/05/09 05:18:36;;;;;;;20.63;14.17;;;;;;;16.71;100.00;100578.03;5022439;28;20261;-70
2023/05/09 05:21:02;;;;;;;27.80;16.07;;;;;;;16.89;100.00;100578.78;5019060;28;20224;-68
2023/05/09 05:23:28;;;;;;;34.03;15.87;;;;;;;17.13;100.00;100569.59;5043682;28;20191;-69
2023/05/09 05:25:55;;;;;;;26.40;16.63;;;;;;;17.14;100.00;100568.72;5037558;28;20208;-70
2023/05/09 05:28:22;;;;;;;27.07;15.80;;;;;;;17.35;99.89;100566.72;5032892;28;20239;-71
2023/05/09 05:30:48;;;;;;;26.60;14.93;;;;;;;17.51;98.20;100557.59;5033368;28;20219;-70
2023/05/09 05:33:15;;;;;;;28.17;16.97;;;;;;;17.64;96.39;100559.22;5038657;28;20199;-70
2023/05/09 05:35:41;;;;;;;23.07;14.70;;;;;;;17.94;96.67;100562.41;5035216;28;20239;-71
2023/05/09 05:38:07;;;;;;;25.37;15.77;;;;;;;18.11;95.27;100560.41;5019334;28;20669;-72
2023/05/09 05:40:34;;;;;;;23.40;15.70;;;;;;;18.50;92.02;100569.63;5025799;28;20203;-70
2023/05/09 05:43:00;;;;;;;24.90;15.00;;;;;;;19.07;90.33;100565.06;5026507;28;20206;-70
2023/05/09 05:45:29;;;;;;;25.00;15.07;;;;;;;19.27;88.17;100566.50;5025503;28;20203;-70
2023/05/09 05:47:55;;;;;;;26.03;16.07;;;;;;;19.19;88.11;100565.75;5025044;28;20632;-74
2023/05/09 05:50:22;;;;;;;23.93;15.77;;;;;;;19.19;88.09;100565.75;5021222;28;20250;-70
2023/05/09 05:52:48;;;;;;;25.43;16.23;;;;;;;18.93;86.44;100564.44;5025739;28;20230;-71
2023/05/09 05:55:14;;;;;;;28.50;16.70;;;;;;;18.86;86.85;100559.22;5026802;28;20221;-67
2023/05/09 05:57:41;;;;;;;24.10;15.93;;;;;;;18.76;87.29;100551.31;5032601;28;20478;-67
2023/05/09 06:00:13;;;;;;;21.90;15.88;;;;;;;18.71;87.58;100552.31;5029348;28;20672;-67
2023/05/09 06:02:43;;;;;;;26.42;15.50;;;;;;;18.65;88.81;100555.97;5036142;28;20235;-68
2023/05/09 06:05:10;;;;;;;24.83;16.87;;;;;;;18.65;88.42;100566.72;5033910;28;20227;-67
2023/05/09 06:07:37;;;;;;;21.27;15.88;;;;;;;18.71;88.02;100541.56;5033793;28;20700;-74
2023/05/09 06:10:03;;;;;;;22.13;16.07;;;;;;;18.77;88.25;100547.72;5035201;28;20194;-71
2023/05/09 06:12:30;;;;;;;19.58;15.05;;;;;;;19.07;87.45;100548.97;5052160;28;20248;-70
2023/05/09 06:14:56;;;;;;;22.05;14.77;;;;;;;19.33;85.92;100543.09;5053192;28;20195;-68
2023/05/09 06:17:23;;;;;;;20.27;14.82;;;;;;;19.53;84.54;100541.81;5040559;28;20250;-71
2023/05/09 06:19:49;;;;;;;22.42;16.15;;;;;;;19.62;83.98;100541.66;5032512;28;20202;-69
2023/05/09 06:22:15;;;;;;;22.17;15.48;;;;;;;19.73;83.81;100549.50;5052586;28;20662;-69
2023/05/09 06:24:42;;;;;;;21.80;15.88;;;;;;;19.70;83.70;100550.44;5051602;28;20198;-70
2023/05/09 06:27:08;;;;;;;22.33;16.58;;;;;;;19.60;83.85;100546.16;5042551;28;20521;-70
2023/05/09 06:29:34;;;;;;;22.40;16.02;;;;;;;19.48;84.53;100549.94;5043607;28;20557;-71
2023/05/09 06:32:01;;;;;;;20.98;15.68;;;;;;;19.34;85.40;100544.00;5053079;28;20495;-69
2023/05/09 06:34:27;;;;;;;21.67;15.77;;;;;;;19.02;86.51;100542.81;5041248;28;20199;-70
2023/05/09 06:36:53;;;;;;;23.08;15.75;;;;;;;18.87;87.24;100540.41;5037676;28;20227;-70
2023/05/09 06:39:20;;;;;;;22.45;15.75;;;;;;;18.66;87.88;100530.94;5040340;28;20195;-68
2023/05/09 06:41:46;;;;;;;21.23;15.15;;;;;;;18.52;89.04;100527.56;5034139;28;20203;-69
2023/05/09 06:44:12;;;;;;;23.10;15.40;;;;;;;18.57;89.31;100531.06;5042919;28;20245;-67
2023/05/09 06:46:39;;;;;;;18.88;14.35;;;;;;;18.63;89.28;100535.47;5047140;28;20278;-69
2023/05/09 06:49:06;;;;;;;19.17;14.65;;;;;;;18.64;88.55;100534.56;5037965;28;20196;-70
2023/05/09 06:51:32;;;;;;;21.55;15.55;;;;;;;18.57;87.98;100525.69;5039193;28;20212;-69
2023/05/09 06:53:58;;;;;;;21.35;15.20;;;;;;;18.59;87.53;100512.25;5024518;28;20202;-70
2023/05/09 06:56:25;;;;;;;21.15;15.73;;;;;;;18.72;86.78;100512.03;5032937;28;20571;-70
2023/05/09 06:58:52;;;;;;;19.55;14.10;;;;;;;18.98;86.75;100516.06;5033216;28;20201;-70
2023/05/09 07:01:18;;;;;;;22.70;15.48;;;;;;;19.23;85.16;100506.63;5027170;28;20199;-69
2023/05/09 07:03:46;;;;;;;22.63;16.83;;;;;;;19.40;83.98;100503.56;5017479;28;20200;-70
2023/05/09 07:06:12;;;;;;;24.75;16.08;;;;;;;19.50;84.46;100499.75;5023421;28;20660;-70
2023/05/09 07:08:39;;;;;;;18.65;13.95;;;;;;;19.48;84.14;100498.03;5017742;28;20212;-70
2023/05/09 07:11:05;;;;;;;26.35;16.20;;;;;;;19.54;83.31;100511.34;5029816;28;20227;-69
2023/05/09 07:13:31;;;;;;;21.48;14.20;;;;;;;19.56;83.73;100507.72;5025701;28;20234;-70
2023/05/09 07:15:58;;;;;;;24.38;15.32;;;;;;;19.63;83.48;100511.19;5031455;28;20196;-68
2023/05/09 07:18:24;;;;;;;21.85;14.63;;;;;;;19.48;83.05;100501.59;5023832;28;20315;-69
2023/05/09 07:20:50;;;;;;;23.33;15.48;;;;;;;19.51;83.24;100498.84;5028149;28;20630;-70
2023/05/09 07:23:17;;;;;;;22.92;16.05;;;;;;;19.55;82.53;100497.00;5028490;28;20200;-70
2023/05/09 07:25:44;;;;;;;23.38;15.30;;;;;;;19.49;83.57;100484.56;5030672;28;20639;-70
2023/05/09 07:28:11;;;;;;;23.48;15.75;;;;;;;19.57;82.50;100495.16;5027477;28;20210;-68
2023/05/09 07:30:37;;;;;;;20.00;14.77;;;;;;;19.57;83.19;100484.44;5027154;28;20710;-69
2023/05/09 07:33:05;;;;;;;21.55;15.35;;;;;;;19.67;82.95;100484.22;5030895;28;20223;-69
2023/05/09 07:35:31;;;;;;;20.77;15.20;;;;;;;19.64;82.62;100480.72;5032134;28;20196;-69
2023/05/09 07:37:58;;;;;;;20.92;15.10;;;;;;;19.68;81.80;100487.78;5023590;28;20256;-67
2023/05/09 07:40:24;;;;;;;21.40;14.82;;;;;;;19.51;82.65;100487.22;5028762;28;20224;-69
2023/05/09 07:42:53;;;;;;;21.27;15.32;;;;;;;19.51;83.17;100481.84;5034830;28;20219;-70
2023/05/09 07:45:20;;;;;;;22.30;15.35;;;;;;;19.52;82.93;100475.56;5026299;28;20200;-69
2023/05/09 07:47:49;;;;;;;22.50;15.38;;;;;;;19.47;82.79;100472.97;5040799;28;20731;-70
2023/05/09 07:50:16;;;;;;;26.42;17.67;;;;;;;19.56;82.25;100455.78;5035318;28;20644;-69
2023/05/09 07:52:42;;;;;;;23.65;16.85;;;;;;;19.66;82.86;100455.56;5028468;28;20642;-68
2023/05/09 07:55:09;;;;;;;22.90;16.98;;;;;;;19.99;81.77;100451.19;5034887;28;20202;-69
2023/05/09 07:57:35;;;;;;;23.45;17.48;;;;;;;20.24;80.25;100451.47;5030073;28;20216;-67
2023/05/09 08:00:02;;;;;;;24.20;16.05;;;;;;;20.38;79.96;100450.22;5019902;28;20203;-70
2023/05/09 08:02:28;;;;;;;24.80;16.33;;;;;;;20.41;79.17;100434.94;5020325;28;20687;-69
2023/05/09 08:04:55;;;;;;;24.38;17.65;;;;;;;20.52;79.27;100435.56;5021886;28;20197;-69
2023/05/09 08:07:21;;;;;;;24.00;17.38;;;;;;;20.70;78.63;100435.97;5017701;28;20216;-68
2023/05/09 08:09:47;;;;;;;28.27;19.13;;;;;;;20.90;78.04;100426.44;5022811;28;20582;-68
2023/05/09 08:12:14;;;;;;;24.15;17.65;;;;;;;21.28;75.68;100429.84;5014151;28;20303;-69
2023/05/09 08:14:40;;;;;;;24.50;17.15;;;;;;;21.63;75.35;100422.50;5017528;28;20246;-69
2023/05/09 08:17:07;;;;;;;24.67;17.75;;;;;;;21.87;73.63;100408.22;5012310;28;20210;-67
2023/05/09 08:19:33;;;;;;;24.65;18.42;;;;;;;22.19;72.24;100407.19;5013026;28;20780;-69
2023/05/09 08:22:00;;;;;;;27.85;19.00;;;;;;;22.18;71.66;100414.41;5012305;28;20196;-69
2023/05/09 08:24:26;;;;;;;27.27;19.38;;;;;;;22.00;72.17;100414.09;5016172;28;21567;-67
2023/05/09 08:26:52;;;;;;;30.02;20.13;;;;;;;21.65;73.15;100421.53;5014690;28;20307;-72
2023/05/09 08:29:19;;;;;;;28.48;19.45;;;;;;;21.23;74.90;100415.66;5017673;28;20192;-68
2023/05/09 08:31:45;;;;;;;29.27;19.15;;;;;;;20.90;76.19;100404.88;5011821;28;20252;-70
2023/05/09 08:34:12;;;;;;;30.13;18.73;;;;;;;20.75;77.19;100404.41;5016970;28;20594;-67
2023/05/09 08:36:39;;;;;;;28.75;19.00;;;;;;;20.51;78.71;100409.56;5011115;28;20306;-69
2023/05/09 08:39:06;;;;;;;29.50;18.50;;;;;;;20.37;79.80;100403.63;5012978;28;20203;-70
2023/05/09 08:41:34;;;;;;;30.83;19.35;;;;;;;20.29;80.52;100411.00;5011493;28;20214;-69
2023/05/09 08:44:01;;;;;;;30.10;20.35;;;;;;;20.11;81.54;100404.31;5010387;28;20701;-69
2023/05/09 08:46:32;;;;;;;31.80;20.42;;;;;;;19.81;82.66;100397.88;5011664;28;20207;-70
2023/05/09 08:48:59;;;;;;;31.88;21.60;;;;;;;19.52;83.85;100405.69;5012721;28;20266;-69
2023/05/09 08:51:28;;;;;;;32.78;21.88;;;;;;;19.24;85.54;100400.97;5011311;28;20224;-69
2023/05/09 08:53:54;;;;;;;35.35;23.08;;;;;;;19.03;87.76;100399.63;5019792;28;20691;-70
2023/05/09 08:56:21;;;;;;;32.20;22.08;;;;;;;18.95;88.00;100398.00;5018082;28;20246;-69
2023/05/09 08:58:48;;;;;;;34.65;22.52;;;;;;;18.90;88.77;100402.59;5022504;28;20529;-66
2023/05/09 09:01:16;;;;;;;35.88;23.30;;;;;;;18.89;88.75;100399.03;5021152;28;20613;-69
2023/05/09 09:03:46;;;;;;;35.90;23.02;;;;;;;18.82;89.63;100396.50;5024461;28;20192;-70
2023/05/09 09:06:13;;;;;;;37.35;23.58;;;;;;;18.81;89.49;100390.22;5020571;28;20199;-71
2023/05/09 09:08:40;;;;;;;43.15;25.23;;;;;;;18.87;89.92;100397.28;5026545;28;20765;-69
2023/05/09 09:11:10;;;;;;;44.40;26.65;;;;;;;18.78;90.83;100393.84;5029047;28;20251;-69
2023/05/09 09:13:39;;;;;;;42.30;26.02;;;;;;;18.71;91.49;100397.56;5027401;28;20227;-70
2023/05/09 09:16:12;;;;;;;46.67;28.17;;;;;;;18.70;91.66;100389.56;5025350;28;20277;-68
2023/05/09 09:18:39;;;;;;;46.13;27.48;;;;;;;18.68;91.31;100384.22;5028665;28;20219;-69
2023/05/09 09:21:08;;;;;;;44.88;27.30;;;;;;;18.60;91.23;100382.59;5029192;28;20660;-70
2023/05/09 09:23:39;;;;;;;44.75;27.33;;;;;;;18.57;92.50;100380.84;5029147;28;20212;-68
2023/05/09 09:26:05;;;;;;;47.33;27.50;;;;;;;18.56;92.33;100375.50;5023777;28;20591;-70
2023/05/09 09:28:32;;;;;;;39.72;25.05;;;;;;;18.56;92.48;100368.34;5023929;28;20742;-69
2023/05/09 09:30:59;;;;;;;49.53;28.45;;;;;;;18.57;91.74;100364.75;5026815;28;20685;-69
2023/05/09 09:33:27;;;;;;;49.70;29.73;;;;;;;18.81;91.70;100365.19;5024274;28;20206;-67
2023/05/09 09:35:55;;;;;;;46.90;28.40;;;;;;;19.13;89.85;100353.78;5029008;28;20203;-69
2023/05/09 09:38:23;;;;;;;45.17;26.92;;;;;;;19.33;88.37;100359.59;5022603;28;20239;-69
2023/05/09 09:40:57;;;;;;;42.38;26.48;;;;;;;19.47;88.46;100359.25;5022772;28;20247;-67
2023/05/09 09:43:31;;;;;;;42.75;26.67;;;;;;;19.69;87.31;100341.75;5023504;28;20203;-70
2023/05/09 09:46:01;;;;;;;44.75;28.77;;;;;;;19.88;86.31;100340.34;5022250;28;20196;-71
2023/05/09 09:48:33;;;;;;;42.38;27.60;;;;;;;19.98;85.44;100341.00;5020291;28;20247;-69
2023/05/09 09:51:18;;;;;;;43.38;26.50;;;;;;;19.89;85.34;100339.44;5023978;28;20202;-69
2023/05/09 09:53:45;;;;;;;46.28;28.77;;;;;;;19.71;86.04;100337.22;5022493;28;20218;-69
2023/05/09 09:56:12;;;;;;;45.80;26.90;;;;;;;19.64;86.97;100333.81;5018768;28;20204;-69
2023/05/09 09:58:38;;;;;;;45.55;27.15;;;;;;;19.42;88.09;100325.34;5025048;28;20215;-71
2023/05/09 10:01:09;;;;;;;48.55;28.67;;;;;;;19.31;88.32;100334.56;5023479;28;20680;-68
2023/05/09 10:03:41;;;;;;;51.75;29.48;;;;;;;19.38;87.91;100320.09;5024744;28;20230;-68
2023/05/09 10:06:12;;;;;;;50.90;30.60;;;;;;;19.53;87.72;100313.47;5024550;28;20206;-71
2023/05/09 10:08:39;;;;;;;51.38;29.73;;;;;;;19.51;87.89;100317.97;5014235;28;20219;-69
2023/05/09 10:11:07;;;;;;;55.63;32.03;;;;;;;19.62;87.69;100314.16;5022330;28;20271;-69
2023/05/09 10:13:37;;;;;;;51.00;31.17;;;;;;;20.14;85.77;100298.47;5018833;28;20197;-69
2023/05/09 10:16:07;;;;;;;47.38;30.10;;;;;;;20.83;82.61;100294.75;5020426;28;20195;-68
2023/05/09 10:18:34;;;;;;;47.08;30.23;;;;;;;21.41;79.62;100287.56;5020968;28;20299;-69
2023/05/09 10:21:02;;;;;;;46.25;30.05;;;;;;;21.96;76.70;100293.75;5021982;28;20631;-69
2023/05/09 10:23:31;;;;;;;45.60;29.63;;;;;;;22.44;74.80;100283.97;5022711;28;20199;-70
2023/05/09 10:26:17;;;;;;;46.55;29.77;;;;;;;22.66;73.44;100281.34;5024074;28;20195;-69
2023/05/09 10:28:46;;;;;;;50.13;30.88;;;;;;;22.89;71.97;100280.50;5019872;28;20253;-70
2023/05/09 10:31:26;;;;;;;46.55;28.70;;;;;;;22.94;71.32;100278.50;5023181;28;20196;-70
2023/05/09 10:33:54;;;;;;;41.45;28.80;;;;;;;22.98;72.19;100284.66;5016724;28;20294;-70
2023/05/09 10:36:22;;;;;;;39.55;27.27;;;;;;;23.04;71.57;100270.91;5021415;28;20227;-70
2023/05/09 10:38:52;;;;;;;43.83;28.48;;;;;;;22.81;71.17;100269.09;5059398;23;20285;-72
2023/05/09 10:41:20;;;;;;;41.80;28.42;;;;;;;22.72;72.54;100267.59;5048280;28;20282;-72
2023/05/09 10:43:47;;;;;;;41.95;28.92;;;;;;;22.80;72.16;100270.00;5040729;28;20682;-70
2023/05/09 10:46:14;;;;;;;41.17;28.60;;;;;;;23.04;70.55;100249.28;5044830;28;20582;-71
2023/05/09 10:48:42;;;;;;;38.63;25.65;;;;;;;23.69;68.28;100243.03;5042499;28;20272;-72
2023/05/09 10:51:11;;;;;;;39.38;25.90;;;;;;;24.08;66.37;100240.41;5042758;28;20199;-71
2023/05/09 10:53:49;;;;;;;37.75;25.40;;;;;;;24.77;63.78;100234.53;5050214;28;20224;-72
2023/05/09 10:56:32;;;;;;;37.35;27.38;;;;;;;25.24;62.65;100229.59;5052859;28;20266;-73
2023/05/09 10:58:59;;;;;;;37.22;26.52;;;;;;;25.55;60.92;100227.06;5050056;28;20219;-70
2023/05/09 11:01:33;;;;;;;34.08;24.98;;;;;;;25.23;61.27;100225.13;5053887;28;20204;-71
2023/05/09 11:04:07;;;;;;;35.95;25.13;;;;;;;25.24;63.13;100225.03;5044516;28;20194;-71
2023/05/09 11:06:44;;;;;;;31.25;22.98;;;;;;;25.53;60.86;100219.97;5036184;28;20290;-71
2023/05/09 11:09:31;;;;;;;33.00;22.38;;;;;;;25.46;60.21;100213.09;5044725;28;20199;-74